createdAt,value
2022-08-30T00:00:29.188Z,0.90
2022-08-30T00:02:56.501Z,0.85
2022-08-30T00:05:23.274Z,0.80
2022-08-30T00:07:50.252Z,1.10
2022-08-30T00:10:16.760Z,0.80
2022-08-30T00:12:43.665Z,0.95
2022-08-30T00:15:12.181Z,0.98
2022-08-30T00:17:39.259Z,0.90
2022-08-30T00:20:07.378Z,0.80
2022-08-30T00:22:33.836Z,0.90
2022-08-30T00:25:01.062Z,0.88
2022-08-30T00:27:28.324Z,0.80
2022-08-30T00:29:55.052Z,0.82
2022-08-30T00:32:21.706Z,0.70
2022-08-30T00:34:48.577Z,0.90
2022-08-30T00:37:15.303Z,0.85
2022-08-30T00:39:42.261Z,1.00
2022-08-30T00:42:09.469Z,0.90
2022-08-30T00:44:36.143Z,0.90
2022-08-30T00:47:03.058Z,0.65
2022-08-30T00:49:30.080Z,0.80
2022-08-30T00:51:56.861Z,0.70
2022-08-30T00:54:26.316Z,0.70
2022-08-30T00:56:53.220Z,0.90
2022-08-30T00:59:20.003Z,0.90
2022-08-30T01:01:46.555Z,0.60
2022-08-30T01:04:15.105Z,0.90
2022-08-30T01:06:41.944Z,0.82
2022-08-30T01:09:08.614Z,0.50
2022-08-30T01:11:37.460Z,0.80
2022-08-30T01:14:04.935Z,0.60
2022-08-30T01:16:32.658Z,0.80
2022-08-30T01:18:59.474Z,0.75
2022-08-30T01:21:49.883Z,0.60
2022-08-30T01:24:17.384Z,0.70
2022-08-30T01:26:43.828Z,0.60
2022-08-30T01:29:13.317Z,0.60
2022-08-30T01:31:40.073Z,0.77
2022-08-30T01:34:07.799Z,0.70
2022-08-30T01:36:35.769Z,0.70
2022-08-30T01:39:02.901Z,0.75
2022-08-30T01:41:34.948Z,0.60
2022-08-30T01:44:03.464Z,0.77
2022-08-30T01:46:37.974Z,0.60
2022-08-30T01:49:05.820Z,0.80
2022-08-30T01:51:32.811Z,0.70
2022-08-30T01:53:59.518Z,1.00
2022-08-30T01:56:27.276Z,0.70
2022-08-30T01:58:53.914Z,0.50
2022-08-30T02:01:22.992Z,0.50
2022-08-30T02:03:49.555Z,0.57
2022-08-30T02:06:17.819Z,0.70
2022-08-30T02:08:44.392Z,0.60
2022-08-30T02:11:11.551Z,0.80
2022-08-30T02:13:38.593Z,0.68
2022-08-30T02:16:06.025Z,0.70
2022-08-30T02:18:33.120Z,0.60
2022-08-30T02:20:59.550Z,0.60
2022-08-30T02:23:26.077Z,0.60
2022-08-30T02:25:52.850Z,0.68
2022-08-30T02:28:19.895Z,0.60
2022-08-30T02:30:47.393Z,0.60
2022-08-30T02:33:14.391Z,0.70
2022-08-30T02:35:41.210Z,0.65
2022-08-30T02:38:08.005Z,0.60
2022-08-30T02:40:35.031Z,0.77
2022-08-30T02:43:05.612Z,0.60
2022-08-30T02:45:32.143Z,0.77
2022-08-30T02:47:58.689Z,0.68
2022-08-30T02:50:26.874Z,0.73
2022-08-30T02:52:54.288Z,0.68
2022-08-30T02:55:21.965Z,0.70
2022-08-30T02:57:48.498Z,0.63
2022-08-30T03:00:17.048Z,0.90
2022-08-30T03:02:43.669Z,0.57
2022-08-30T03:05:13.050Z,0.77
2022-08-30T03:07:40.421Z,0.60
2022-08-30T03:10:07.078Z,0.70
2022-08-30T03:12:34.577Z,0.80
2022-08-30T03:15:01.160Z,0.68
2022-08-30T03:17:27.596Z,0.70
2022-08-30T03:19:54.242Z,0.68
2022-08-30T03:22:20.684Z,0.70
2022-08-30T03:24:47.139Z,0.60
2022-08-30T03:27:13.576Z,0.90
2022-08-30T03:29:40.024Z,0.70
2022-08-30T03:32:06.603Z,0.70
2022-08-30T03:34:33.089Z,0.93
2022-08-30T03:37:01.317Z,0.60
2022-08-30T03:39:27.839Z,0.60
2022-08-30T03:41:54.325Z,0.80
2022-08-30T03:44:21.493Z,0.70
2022-08-30T03:46:48.043Z,0.75
2022-08-30T03:49:14.869Z,0.73
2022-08-30T03:51:41.359Z,0.70
2022-08-30T03:54:07.895Z,1.00
2022-08-30T03:56:34.332Z,0.90
2022-08-30T03:59:01.139Z,0.80
2022-08-30T04:01:27.637Z,0.60
2022-08-30T04:03:54.203Z,0.90
2022-08-30T04:06:20.620Z,1.08
2022-08-30T04:08:47.054Z,0.85
2022-08-30T04:11:15.048Z,0.90
2022-08-30T04:13:41.537Z,0.75
2022-08-30T04:16:08.051Z,0.77
2022-08-30T04:18:35.984Z,0.88
2022-08-30T04:21:02.986Z,0.80
2022-08-30T04:23:29.505Z,0.90
2022-08-30T04:25:56.025Z,0.90
2022-08-30T04:28:23.093Z,0.90
2022-08-30T04:30:49.502Z,1.10
2022-08-30T04:33:16.692Z,1.10
2022-08-30T04:35:44.718Z,1.00
2022-08-30T04:38:11.365Z,0.88
2022-08-30T04:40:37.874Z,1.27
2022-08-30T04:43:04.424Z,1.20
2022-08-30T04:45:30.990Z,0.90
2022-08-30T04:47:57.467Z,1.05
2022-08-30T04:50:23.894Z,1.20
2022-08-30T04:52:50.453Z,0.80
2022-08-30T04:55:20.269Z,0.95
2022-08-30T04:57:46.903Z,1.17
2022-08-30T05:00:13.869Z,1.10
2022-08-30T05:02:41.171Z,1.15
2022-08-30T05:05:27.018Z,1.00
2022-08-30T05:07:53.478Z,1.10
2022-08-30T05:10:20.088Z,1.17
2022-08-30T05:12:46.531Z,1.20
2022-08-30T05:15:13.048Z,1.30
2022-08-30T05:17:40.042Z,1.20
2022-08-30T05:20:07.365Z,1.30
2022-08-30T05:22:36.109Z,1.10
2022-08-30T05:25:02.916Z,1.10
2022-08-30T05:27:29.450Z,1.17
2022-08-30T05:29:55.909Z,0.95
2022-08-30T05:32:22.418Z,1.25
2022-08-30T05:34:49.893Z,1.38
2022-08-30T05:37:17.827Z,1.00
2022-08-30T05:39:50.847Z,1.10
2022-08-30T05:42:17.569Z,1.10
2022-08-30T05:44:44.318Z,1.20
2022-08-30T05:47:10.903Z,1.30
2022-08-30T05:49:37.332Z,1.10
2022-08-30T05:52:04.232Z,1.30
2022-08-30T05:54:30.701Z,1.23
2022-08-30T05:56:57.167Z,1.30
2022-08-30T05:59:23.604Z,1.20
2022-08-30T06:01:50.181Z,1.13
2022-08-30T06:04:16.823Z,1.10
2022-08-30T06:06:43.913Z,1.27
2022-08-30T06:09:10.903Z,1.20
2022-08-30T06:11:37.835Z,1.13
2022-08-30T06:14:04.836Z,1.08
2022-08-30T06:16:31.273Z,1.00
2022-08-30T06:18:58.269Z,1.05
2022-08-30T06:21:29.062Z,1.10
2022-08-30T06:23:56.554Z,1.20
2022-08-30T06:26:23.289Z,1.33
2022-08-30T06:28:49.865Z,1.08
2022-08-30T06:31:17.156Z,1.10
2022-08-30T06:33:43.891Z,1.20
2022-08-30T06:36:13.147Z,1.27
2022-08-30T06:38:42.151Z,1.20
2022-08-30T06:41:13.642Z,1.17
2022-08-30T06:43:48.175Z,1.27
2022-08-30T06:46:24.765Z,1.20
2022-08-30T06:48:51.917Z,1.20
2022-08-30T06:51:21.973Z,1.20
2022-08-30T06:53:49.852Z,1.20
2022-08-30T06:56:16.954Z,1.45
2022-08-30T06:58:43.503Z,1.35
2022-08-30T07:01:18.091Z,1.23
2022-08-30T07:03:44.726Z,1.27
2022-08-30T07:06:11.410Z,1.27
2022-08-30T07:08:38.353Z,1.40
2022-08-30T07:11:05.497Z,1.40
2022-08-30T07:13:32.146Z,1.20
2022-08-30T07:15:58.630Z,1.38
2022-08-30T07:18:43.718Z,1.30
2022-08-30T07:21:15.354Z,1.27
2022-08-30T07:23:42.565Z,1.30
2022-08-30T07:26:12.029Z,1.05
2022-08-30T07:28:39.581Z,1.30
2022-08-30T07:33:38.106Z,1.30
2022-08-30T07:36:04.989Z,1.38
2022-08-30T07:38:31.439Z,1.10
2022-08-30T07:41:01.335Z,1.63
2022-08-30T07:43:31.292Z,1.35
2022-08-30T07:46:01.474Z,1.10
2022-08-30T07:48:27.962Z,1.23
2022-08-30T07:50:57.680Z,1.15
2022-08-30T07:53:26.538Z,1.10
2022-08-30T07:55:52.972Z,1.20
2022-08-30T07:58:19.519Z,1.50
2022-08-30T08:00:46.115Z,1.40
2022-08-30T08:03:12.781Z,1.10
2022-08-30T08:05:40.597Z,1.20
2022-08-30T08:08:07.071Z,1.20
2022-08-30T08:10:34.105Z,1.40
2022-08-30T08:13:01.526Z,1.15
2022-08-30T08:15:28.782Z,1.58
2022-08-30T08:17:55.416Z,1.30
2022-08-30T08:20:22.467Z,1.33
2022-08-30T08:22:48.907Z,0.85
2022-08-30T08:25:15.921Z,1.17
2022-08-30T08:27:42.366Z,1.05
2022-08-30T08:30:09.118Z,1.10
2022-08-30T08:32:35.588Z,1.25
2022-08-30T08:35:02.331Z,1.25
2022-08-30T08:37:28.827Z,1.08
2022-08-30T08:39:55.904Z,0.98
2022-08-30T08:42:28.192Z,1.00
2022-08-30T08:44:57.640Z,1.08
2022-08-30T08:47:28.855Z,1.05
2022-08-30T08:49:57.331Z,1.08
2022-08-30T08:52:50.392Z,1.05
2022-08-30T08:55:19.112Z,0.90
2022-08-30T08:57:45.655Z,1.10
2022-08-30T09:00:13.210Z,1.00
2022-08-30T09:02:41.975Z,1.08
2022-08-30T09:05:09.117Z,1.10
2022-08-30T09:07:41.358Z,1.30
2022-08-30T09:10:07.969Z,1.10
2022-08-30T09:12:34.776Z,1.20
2022-08-30T09:15:08.897Z,1.15
2022-08-30T09:17:48.992Z,1.30
2022-08-30T09:20:24.729Z,1.10
2022-08-30T09:22:51.137Z,1.00
2022-08-30T09:25:23.682Z,1.20
2022-08-30T09:27:51.459Z,1.30
2022-08-30T09:30:20.159Z,1.17
2022-08-30T09:32:57.221Z,1.45
2022-08-30T09:35:44.238Z,1.17
2022-08-30T09:38:12.659Z,1.20
2022-08-30T09:40:41.648Z,0.88
2022-08-30T09:43:11.993Z,1.25
2022-08-30T09:45:40.869Z,1.20
2022-08-30T09:48:28.065Z,1.10
2022-08-30T09:51:17.528Z,0.93
2022-08-30T09:57:11.655Z,1.00
2022-08-30T09:59:57.647Z,1.15
2022-08-30T10:02:36.335Z,1.20
2022-08-30T10:05:08.009Z,1.52
2022-08-30T10:07:36.433Z,1.10
2022-08-30T10:10:21.675Z,1.00
2022-08-30T10:13:04.384Z,1.00
2022-08-30T10:15:36.663Z,1.00
2022-08-30T10:18:12.776Z,1.00
2022-08-30T10:21:02.273Z,1.10
2022-08-30T10:23:32.191Z,1.02
2022-08-30T10:26:14.591Z,1.00
2022-08-30T10:28:52.443Z,1.02
2022-08-30T10:31:24.858Z,0.90
2022-08-30T10:33:54.684Z,1.00
2022-08-30T10:36:23.642Z,1.05
2022-08-30T10:38:53.598Z,1.30
2022-08-30T10:41:24.429Z,1.10
2022-08-30T10:44:02.728Z,0.97
2022-08-30T10:46:47.933Z,1.10
2022-08-30T10:49:17.296Z,1.00
2022-08-30T10:51:58.902Z,1.05
2022-08-30T10:54:25.536Z,1.10
2022-08-30T10:56:53.063Z,0.80
2022-08-30T10:59:20.498Z,0.88
2022-08-30T11:01:52.903Z,0.77
2022-08-30T11:04:37.767Z,0.80
2022-08-30T11:07:10.141Z,0.85
2022-08-30T11:09:55.390Z,0.98
2022-08-30T11:12:27.583Z,1.02
2022-08-30T11:14:54.188Z,0.98
2022-08-30T11:17:36.613Z,0.90
2022-08-30T11:20:05.055Z,0.93
2022-08-30T11:22:36.786Z,0.90
2022-08-30T11:25:09.905Z,0.80
2022-08-30T11:27:53.793Z,0.73
2022-08-30T11:30:26.580Z,0.90
2022-08-30T11:32:57.480Z,0.73
2022-08-30T11:35:37.721Z,0.70
2022-08-30T11:38:17.898Z,0.85
2022-08-30T11:40:48.290Z,0.88
2022-08-30T11:43:41.032Z,0.63
2022-08-30T11:48:39.770Z,0.75
2022-08-30T11:51:29.831Z,0.60
2022-08-30T11:53:59.548Z,0.65
2022-08-30T11:56:25.988Z,0.68
2022-08-30T11:59:18.843Z,0.80
2022-08-30T12:01:51.196Z,0.40
2022-08-30T12:04:21.434Z,0.57
2022-08-30T12:07:13.895Z,0.52
2022-08-30T12:10:00.967Z,0.60
2022-08-30T12:12:37.888Z,0.70
2022-08-30T12:15:04.416Z,0.60
2022-08-30T12:17:52.159Z,0.70
2022-08-30T12:20:27.425Z,0.75
2022-08-30T12:22:54.338Z,0.70
2022-08-30T12:25:24.362Z,0.45
2022-08-30T12:27:51.212Z,0.60
2022-08-30T12:30:24.283Z,0.65
2022-08-30T12:32:53.103Z,0.50
2022-08-30T12:35:24.986Z,0.63
2022-08-30T12:37:56.660Z,0.70
2022-08-30T12:40:25.533Z,0.50
2022-08-30T12:42:54.010Z,0.77
2022-08-30T12:45:24.241Z,0.40
2022-08-30T12:47:53.254Z,0.60
2022-08-30T12:50:21.991Z,0.52
2022-08-30T12:52:56.824Z,0.40
2022-08-30T12:55:25.790Z,0.40
2022-08-30T12:58:01.382Z,0.60
2022-08-30T13:00:30.700Z,0.60
2022-08-30T13:03:02.301Z,0.43
2022-08-30T13:05:45.048Z,0.60
2022-08-30T13:08:18.146Z,0.45
2022-08-30T13:10:55.986Z,0.43
2022-08-30T13:13:34.244Z,0.60
2022-08-30T13:16:11.628Z,0.60
2022-08-30T13:18:39.336Z,0.50
2022-08-30T13:21:25.018Z,0.50
2022-08-30T13:23:54.806Z,0.40
2022-08-30T13:26:23.368Z,0.52
2022-08-30T13:28:50.346Z,0.40
2022-08-30T13:31:17.092Z,0.40
2022-08-30T13:33:45.970Z,0.52
2022-08-30T13:36:15.533Z,0.40
2022-08-30T13:38:43.108Z,0.43
2022-08-30T13:41:10.784Z,0.50
2022-08-30T13:44:09.468Z,0.43
2022-08-30T13:46:26.665Z,0.40
2022-08-30T13:48:56.388Z,0.43
2022-08-30T13:51:22.864Z,0.50
2022-08-30T13:53:52.713Z,0.50
2022-08-30T13:56:19.893Z,0.57
2022-08-30T13:58:47.898Z,0.40
2022-08-30T14:01:14.448Z,0.50
2022-08-30T14:04:13.376Z,0.50
2022-08-30T14:06:34.066Z,0.40
2022-08-30T14:09:03.762Z,0.40
2022-08-30T14:11:31.201Z,0.50
2022-08-30T14:16:44.645Z,0.50
2022-08-30T14:19:12.583Z,0.50
2022-08-30T14:21:39.035Z,0.40
2022-08-30T14:24:06.646Z,0.40
2022-08-30T14:26:35.527Z,0.60
2022-08-30T14:29:02.871Z,0.50
2022-08-30T14:31:32.696Z,0.30
2022-08-30T14:34:00.272Z,0.35
2022-08-30T14:36:26.708Z,0.50
2022-08-30T14:38:53.208Z,0.40
2022-08-30T14:41:19.722Z,0.30
2022-08-30T14:43:46.218Z,0.40
2022-08-30T14:46:13.213Z,0.50
2022-08-30T14:48:40.028Z,0.47
2022-08-30T14:51:15.320Z,0.43
2022-08-30T14:53:41.777Z,0.40
2022-08-30T14:56:10.967Z,0.40
2022-08-30T14:58:38.028Z,0.40
2022-08-30T15:01:08.921Z,0.50
2022-08-30T15:03:36.799Z,0.50
2022-08-30T15:06:03.451Z,0.40
2022-08-30T15:08:30.168Z,0.35
2022-08-30T15:10:56.821Z,0.40
2022-08-30T15:13:23.362Z,0.50
2022-08-30T15:15:49.838Z,0.40
2022-08-30T15:18:17.311Z,0.30
2022-08-30T15:20:46.815Z,0.30
2022-08-30T15:23:14.226Z,0.40
2022-08-30T15:25:44.025Z,0.35
2022-08-30T15:28:10.561Z,0.32
2022-08-30T15:30:37.062Z,0.30
2022-08-30T15:33:03.608Z,0.50
2022-08-30T15:35:30.071Z,0.60
2022-08-30T15:37:57.506Z,0.40
2022-08-30T15:40:24.669Z,0.40
2022-08-30T15:42:53.043Z,0.50
2022-08-30T15:45:19.990Z,0.60
2022-08-30T15:47:46.484Z,0.50
2022-08-30T15:50:12.950Z,0.43
2022-08-30T15:52:49.751Z,0.50
2022-08-30T15:55:16.187Z,0.80
2022-08-30T15:57:48.674Z,0.40
2022-08-30T16:00:15.561Z,0.63
2022-08-30T16:02:42.102Z,0.50
2022-08-30T16:05:09.516Z,0.50
2022-08-30T16:07:40.442Z,0.50
2022-08-30T16:10:07.710Z,0.55
2022-08-30T16:12:34.152Z,0.68
2022-08-30T16:15:00.578Z,0.40
2022-08-30T16:17:27.079Z,0.50
2022-08-30T16:19:56.914Z,0.57
2022-08-30T16:22:26.478Z,0.50
2022-08-30T16:24:52.981Z,0.40
2022-08-30T16:27:19.554Z,0.60
2022-08-30T16:29:47.714Z,0.50
2022-08-30T16:32:16.807Z,0.50
2022-08-30T16:34:43.267Z,0.50
2022-08-30T16:37:09.699Z,0.65
2022-08-30T16:39:36.244Z,0.68
2022-08-30T16:42:03.356Z,0.40
2022-08-30T16:44:30.806Z,0.70
2022-08-30T16:46:57.346Z,0.60
2022-08-30T16:49:25.444Z,0.65
2022-08-30T16:51:52.534Z,0.60
2022-08-30T16:54:19.885Z,0.60
2022-08-30T16:56:46.368Z,0.65
2022-08-30T16:59:13.782Z,0.50
2022-08-30T17:01:42.432Z,0.43
2022-08-30T17:04:09.444Z,0.60
2022-08-30T17:06:36.294Z,0.50
2022-08-30T17:09:03.717Z,0.40
2022-08-30T17:11:31.472Z,0.50
2022-08-30T17:13:57.931Z,0.40
2022-08-30T17:16:27.896Z,0.65
2022-08-30T17:18:55.590Z,0.50
2022-08-30T17:21:22.121Z,0.60
2022-08-30T17:23:50.021Z,0.43
2022-08-30T17:26:17.260Z,0.60
2022-08-30T17:28:44.203Z,0.50
2022-08-30T17:31:14.861Z,0.50
2022-08-30T17:33:45.410Z,0.50
2022-08-30T17:36:13.006Z,0.50
2022-08-30T17:38:44.750Z,0.50
2022-08-30T17:41:11.789Z,0.45
2022-08-30T17:43:38.434Z,0.50
2022-08-30T17:46:09.670Z,0.50
2022-08-30T17:48:36.485Z,0.50
2022-08-30T17:51:02.925Z,0.60
2022-08-30T17:53:29.742Z,0.50
2022-08-30T17:55:56.188Z,0.40
2022-08-30T17:58:25.081Z,0.65
2022-08-30T18:00:51.609Z,0.40
2022-08-30T18:03:18.119Z,0.38
2022-08-30T18:05:46.978Z,0.50
2022-08-30T18:08:13.621Z,0.40
2022-08-30T18:10:40.563Z,0.60
2022-08-30T18:13:14.780Z,0.47
2022-08-30T18:15:44.069Z,0.38
2022-08-30T18:18:11.671Z,0.32
2022-08-30T18:20:39.581Z,0.50
2022-08-30T18:23:06.070Z,0.40
2022-08-30T18:25:32.708Z,0.45
2022-08-30T18:27:59.298Z,0.45
2022-08-30T18:30:33.173Z,0.52
2022-08-30T18:33:00.689Z,0.60
2022-08-30T18:35:27.385Z,0.35
2022-08-30T18:37:54.149Z,0.40
2022-08-30T18:40:20.738Z,0.30
2022-08-30T18:42:47.637Z,0.40
2022-08-30T18:45:15.308Z,0.38
2022-08-30T18:47:42.137Z,0.40
2022-08-30T18:50:08.696Z,0.30
2022-08-30T18:52:35.465Z,0.40
2022-08-30T18:55:02.363Z,0.40
2022-08-30T18:57:28.852Z,0.43
2022-08-30T18:59:57.591Z,0.40
2022-08-30T19:02:27.840Z,0.40
2022-08-30T19:04:54.524Z,0.50
2022-08-30T19:07:34.411Z,0.30
2022-08-30T19:10:04.458Z,0.40
2022-08-30T19:12:31.209Z,0.38
2022-08-30T19:14:59.358Z,0.32
2022-08-30T19:17:26.514Z,0.30
2022-08-30T19:19:53.569Z,0.40
2022-08-30T19:22:21.003Z,0.50
2022-08-30T19:24:49.831Z,0.40
2022-08-30T19:27:17.211Z,0.30
2022-08-30T19:29:45.109Z,0.40
2022-08-30T19:32:12.206Z,0.32
2022-08-30T19:34:43.706Z,0.40
2022-08-30T19:37:14.644Z,0.30
2022-08-30T19:39:43.179Z,0.40
2022-08-30T19:42:13.219Z,0.40
2022-08-30T19:44:39.746Z,0.40
2022-08-30T19:47:06.628Z,0.40
2022-08-30T19:49:33.539Z,0.35
2022-08-30T19:52:00.038Z,0.50
2022-08-30T19:54:26.679Z,0.35
2022-08-30T19:56:53.163Z,0.40
2022-08-30T19:59:19.857Z,0.47
2022-08-30T20:01:46.737Z,0.30
2022-08-30T20:04:13.520Z,0.40
2022-08-30T20:06:41.936Z,0.43
2022-08-30T20:09:16.124Z,0.52
2022-08-30T20:11:43.385Z,0.40
2022-08-30T20:14:14.038Z,0.60
2022-08-30T20:16:40.512Z,0.30
2022-08-30T20:19:11.814Z,0.47
2022-08-30T20:21:38.814Z,0.52
2022-08-30T20:24:05.418Z,0.30
2022-08-30T20:26:36.284Z,0.45
2022-08-30T20:29:03.337Z,0.40
2022-08-30T20:31:30.056Z,0.30
2022-08-30T20:33:56.737Z,0.40
2022-08-30T20:36:23.217Z,0.40
2022-08-30T20:38:50.176Z,0.40
2022-08-30T20:41:18.017Z,0.40
2022-08-30T20:43:45.441Z,0.50
2022-08-30T20:46:16.336Z,0.40
2022-08-30T20:48:43.560Z,0.32
2022-08-30T20:51:11.006Z,0.40
2022-08-30T20:53:37.959Z,0.40
2022-08-30T20:56:05.016Z,0.30
2022-08-30T20:58:31.520Z,0.50
2022-08-30T21:00:57.961Z,0.55
2022-08-30T21:03:26.009Z,0.30
2022-08-30T21:05:54.368Z,0.50
2022-08-30T21:08:20.849Z,0.30
2022-08-30T21:10:47.933Z,0.40
2022-08-30T21:13:14.412Z,0.40
2022-08-30T21:15:45.744Z,0.40
2022-08-30T21:18:13.686Z,0.32
2022-08-30T21:20:40.138Z,0.35
2022-08-30T21:23:06.626Z,0.40
2022-08-30T21:25:34.190Z,0.30
2022-08-30T21:28:00.722Z,0.40
2022-08-30T21:30:27.185Z,0.30
2022-08-30T21:32:53.756Z,0.32
2022-08-30T21:35:38.541Z,0.30
2022-08-30T21:38:07.435Z,0.43
2022-08-30T21:40:33.967Z,0.40
2022-08-30T21:43:05.555Z,0.40
2022-08-30T21:47:58.738Z,0.60
2022-08-30T21:50:25.171Z,0.40
2022-08-30T21:52:52.110Z,0.50
2022-08-30T21:55:18.833Z,0.50
2022-08-30T21:57:45.264Z,0.40
2022-08-30T22:00:18.715Z,0.40
2022-08-30T22:02:45.477Z,0.40
2022-08-30T22:05:15.588Z,0.45
2022-08-30T22:07:42.088Z,0.40
2022-08-30T22:10:10.587Z,0.40
2022-08-30T22:12:37.489Z,0.40
2022-08-30T22:15:05.063Z,0.50
2022-08-30T22:17:31.669Z,0.40
2022-08-30T22:19:58.146Z,0.50
2022-08-30T22:22:24.662Z,0.30
2022-08-30T22:24:51.385Z,0.50
2022-08-30T22:27:17.900Z,0.30
2022-08-30T22:29:44.430Z,0.40
2022-08-30T22:32:10.977Z,0.55
2022-08-30T22:34:38.768Z,0.40
2022-08-30T22:37:05.289Z,0.50
2022-08-30T22:39:31.789Z,0.40
2022-08-30T22:41:58.304Z,0.50
2022-08-30T22:44:25.456Z,0.47
2022-08-30T22:46:51.897Z,0.40
2022-08-30T22:49:18.366Z,0.45
2022-08-30T22:51:44.854Z,0.40
2022-08-30T22:54:11.515Z,0.60
2022-08-30T22:56:39.091Z,0.40
2022-08-30T22:59:06.123Z,0.40
2022-08-30T23:01:34.738Z,0.40
2022-08-30T23:04:01.441Z,0.40
2022-08-30T23:06:29.290Z,0.52
2022-08-30T23:08:56.388Z,0.40
2022-08-30T23:11:23.132Z,0.35
2022-08-30T23:13:49.670Z,0.45
2022-08-30T23:16:16.533Z,0.30
2022-08-30T23:18:44.139Z,0.40
2022-08-30T23:21:12.413Z,0.43
2022-08-30T23:23:57.648Z,0.57
2022-08-30T23:26:42.883Z,0.43
2022-08-30T23:29:28.412Z,0.30
2022-08-30T23:32:13.572Z,0.40
2022-08-30T23:34:58.742Z,0.40
2022-08-30T23:37:43.879Z,0.40
2022-08-30T23:40:29.513Z,0.35
2022-08-30T23:43:14.829Z,0.30
2022-08-30T23:45:59.999Z,0.30
2022-08-30T23:48:50.031Z,0.55
2022-08-30T23:51:37.058Z,0.25
2022-08-30T23:54:23.218Z,0.50
2022-08-30T23:57:08.456Z,0.30
2022-08-30T23:59:53.380Z,0.30
